Time;durP1;ratioP1;P1;durP2;ratioP2;P2;SDS_P1;SDS_P2;PMS_P1;PMS_P2;Temp;Humidity;BMP_temperature;BMP_pressure;BME280_temperature;BME280_humidity;BME280_pressure;Samples;Min_cycle;Max_cycle;Signal;HPM_P1;HPM_P2
2021/01/27 00:00:30;;;;;;;3.90;3.45;;;1.20;99.90;;;;;;4999027;28;20129;-73
2021/01/27 00:02:56;;;;;;;3.50;3.20;;;1.20;99.90;;;;;;5002065;28;20037;-74
2021/01/27 00:05:36;;;;;;;3.05;2.63;;;1.30;99.90;;;;;;4997132;28;20038;-72
2021/01/27 00:08:02;;;;;;;7.32;3.38;;;1.40;99.90;;;;;;4994506;28;20474;-72
2021/01/27 00:10:29;;;;;;;5.68;3.97;;;1.40;99.10;;;;;;4994768;28;20508;-72
2021/01/27 00:12:55;;;;;;;4.35;3.65;;;1.40;94.70;;;;;;5003372;28;20038;-72
2021/01/27 00:15:28;;;;;;;4.78;3.42;;;1.50;91.30;;;;;;5020509;28;20098;-73
2021/01/27 00:17:54;;;;;;;4.35;3.75;;;1.50;90.30;;;;;;5010278;28;20177;-73
2021/01/27 00:20:22;;;;;;;4.88;3.50;;;1.50;76.90;;;;;;4995557;28;20498;-72
2021/01/27 00:22:48;;;;;;;3.53;3.10;;;1.60;65.00;;;;;;4996753;28;20025;-73
2021/01/27 00:25:15;;;;;;;6.55;3.50;;;1.60;61.90;;;;;;4997297;28;20018;-74
2021/01/27 00:27:41;;;;;;;4.50;3.75;;;1.60;53.00;;;;;;4998266;28;20221;-77
2021/01/27 00:30:10;;;;;;;3.97;3.45;;;1.60;41.60;;;;;;4998373;28;20030;-77
2021/01/27 00:32:35;;;;;;;3.85;3.28;;;1.60;39.50;;;;;;4999796;28;20042;-79
2021/01/27 00:35:03;;;;;;;4.47;4.07;;;1.60;37.60;;;;;;5002299;28;20511;-81
2021/01/27 00:37:28;;;;;;;7.03;4.40;;;1.70;13.40;;;;;;5001581;28;20022;-77
2021/01/27 00:39:54;;;;;;;4.60;3.60;;;1.70;17.50;;;;;;5002583;28;20077;-71
2021/01/27 00:42:19;;;;;;;4.63;3.90;;;1.60;26.50;;;;;;4993453;28;20037;-72
2021/01/27 00:44:45;;;;;;;4.38;3.67;;;1.60;22.60;;;;;;4996947;28;20033;-71
2021/01/27 00:47:11;;;;;;;5.90;3.30;;;1.60;26.50;;;;;;4994556;28;20097;-71
2021/01/27 00:49:36;;;;;;;6.45;3.88;;;1.60;35.90;;;;;;5002464;28;20029;-71
2021/01/27 00:52:02;;;;;;;6.22;4.30;;;1.50;47.60;;;;;;4993277;28;20045;-72
2021/01/27 00:54:27;;;;;;;5.57;4.50;;;1.40;56.00;;;;;;4997753;28;20072;-71
2021/01/27 00:56:56;;;;;;;5.45;3.92;;;1.40;68.70;;;;;;4994391;28;20041;-70
2021/01/27 00:59:22;;;;;;;4.82;3.80;;;1.40;73.00;;;;;;4994566;28;20559;-72
2021/01/27 01:01:47;;;;;;;3.88;3.30;;;1.40;78.40;;;;;;4994566;28;20034;-71
2021/01/27 01:04:13;;;;;;;4.45;3.60;;;1.50;81.10;;;;;;4993909;28;20386;-71
2021/01/27 01:06:38;;;;;;;7.38;4.13;;;1.50;85.30;;;;;;4994129;28;20026;-70
2021/01/27 01:09:04;;;;;;;5.28;3.70;;;1.50;71.30;;;;;;4994637;28;20030;-71
2021/01/27 01:11:30;;;;;;;5.00;4.03;;;1.50;84.70;;;;;;4994757;28;20033;-72
2021/01/27 01:13:56;;;;;;;4.95;3.90;;;1.60;68.70;;;;;;4996219;28;20029;-70
2021/01/27 01:16:21;;;;;;;6.57;4.18;;;1.60;80.10;;;;;;4993207;28;20057;-72
2021/01/27 01:18:47;;;;;;;6.15;4.53;;;1.70;79.30;;;;;;5011387;28;20058;-72
2021/01/27 01:21:13;;;;;;;6.72;4.43;;;1.70;83.00;;;;;;4999381;28;20041;-71
2021/01/27 01:23:38;;;;;;;7.28;4.60;;;1.60;90.80;;;;;;4993793;28;20026;-72
2021/01/27 01:26:04;;;;;;;7.30;4.68;;;1.60;95.30;;;;;;4992575;28;20384;-71
2021/01/27 01:28:30;;;;;;;5.28;3.92;;;1.60;97.70;;;;;;4992325;28;20057;-71
2021/01/27 01:30:55;;;;;;;5.78;4.78;;;1.60;99.10;;;;;;4987271;28;20022;-71
2021/01/27 01:33:29;;;;;;;6.20;5.07;;;1.60;99.90;;;;;;4997752;28;20025;-71
2021/01/27 01:35:55;;;;;;;5.82;5.10;;;1.60;99.90;;;;;;4993720;28;20038;-72
2021/01/27 01:38:22;;;;;;;8.40;5.63;;;1.70;98.00;;;;;;4995276;28;20069;-71
2021/01/27 01:40:59;;;;;;;7.07;5.18;;;1.70;99.90;;;;;;4997204;28;20030;-72
2021/01/27 01:43:37;;;;;;;7.18;5.40;;;1.60;99.90;;;;;;4996809;28;20035;-71
2021/01/27 01:46:06;;;;;;;8.55;5.95;;;1.60;99.90;;;;;;4997595;28;20018;-73
2021/01/27 01:48:53;;;;;;;7.18;5.53;;;1.50;99.90;;;;;;4993684;28;20508;-71
2021/01/27 01:51:27;;;;;;;7.38;4.90;;;1.50;99.90;;;;;;4994040;28;20049;-71
2021/01/27 01:53:56;;;;;;;8.80;5.60;;;1.50;99.90;;;;;;5000890;28;20018;-72
2021/01/27 01:56:25;;;;;;;9.10;5.97;;;1.50;99.90;;;;;;4993577;28;20018;-72
2021/01/27 01:58:57;;;;;;;11.07;5.20;;;1.40;99.90;;;;;;4994375;28;20379;-72
2021/01/27 02:01:23;;;;;;;7.18;4.90;;;1.40;99.90;;;;;;4993686;28;20026;-72
2021/01/27 02:03:50;;;;;;;7.03;4.90;;;1.50;99.90;;;;;;5000233;28;20030;-72
2021/01/27 02:06:22;;;;;;;6.63;5.40;;;1.50;99.90;;;;;;5002349;28;20026;-71
2021/01/27 02:08:53;;;;;;;7.35;5.15;;;1.50;99.90;;;;;;5013826;28;20037;-72
2021/01/27 02:11:40;;;;;;;7.82;5.55;;;1.50;99.90;;;;;;5002553;28;20069;-72
2021/01/27 02:14:40;;;;;;;5.55;4.82;;;1.50;99.90;;;;;;4979118;28;20034;-70
2021/01/27 02:17:32;;;;;;;8.48;5.45;;;1.60;99.90;;;;;;4999260;28;20115;-71
2021/01/27 02:20:48;;;;;;;5.85;5.32;;;1.60;99.90;;;;;;5000042;28;20030;-71
2021/01/27 02:23:35;;;;;;;6.97;5.45;;;1.50;99.90;;;;;;5023697;28;20053;-70
2021/01/27 02:26:18;;;;;;;6.32;5.50;;;1.50;99.90;;;;;;5012071;28;20041;-71
2021/01/27 02:28:43;;;;;;;6.88;5.90;;;1.40;99.90;;;;;;5003777;28;20030;-71
2021/01/27 02:31:26;;;;;;;6.95;4.95;;;1.40;99.90;;;;;;5010197;28;20034;-71
2021/01/27 02:34:25;;;;;;;12.20;5.72;;;1.40;99.90;;;;;;5007046;28;20022;-70
2021/01/27 02:37:04;;;;;;;8.35;4.80;;;1.50;99.90;;;;;;5005230;28;20027;-71
2021/01/27 02:39:34;;;;;;;6.07;5.47;;;1.60;99.20;;;;;;5006086;28;20489;-71
2021/01/27 02:42:10;;;;;;;10.60;5.22;;;1.50;99.90;;;;;;5004664;28;20034;-70
2021/01/27 02:45:14;;;;;;;8.93;4.72;;;1.40;99.90;;;;;;5020782;28;20350;-71
2021/01/27 02:48:00;;;;;;;10.13;5.45;;;1.30;99.90;;;;;;5001541;28;20027;-71
2021/01/27 02:50:41;;;;;;;7.22;5.13;;;1.30;99.90;;;;;;5007962;28;20030;-71
2021/01/27 02:53:13;;;;;;;;;;;1.30;99.90;;;;;;5003743;28;20022;-70
2021/01/27 02:55:49;;;;;;;;;;;1.30;99.90;;;;;;4991502;28;19913;-72
2021/01/27 02:58:19;;;;;;;;;;;1.30;99.90;;;;;;4997110;28;19945;-72
2021/01/27 03:00:45;;;;;;;;;;;1.30;99.90;;;;;;4996842;28;19913;-72
2021/01/27 03:03:27;;;;;;;;;;;1.40;99.90;;;;;;4999579;28;20008;-72
2021/01/27 03:05:55;;;;;;;;;;;1.50;99.90;;;;;;5008000;28;19910;-72
2021/01/27 03:08:28;;;;;;;;;;;1.40;99.90;;;;;;4998509;28;20340;-73
2021/01/27 03:11:09;;;;;;;;;;;1.40;99.90;;;;;;4989241;28;19963;-72
2021/01/27 03:13:35;;;;;;;;;;;1.40;99.90;;;;;;4992053;28;19936;-72
2021/01/27 03:16:03;;;;;;;;;;;1.40;99.90;;;;;;4999978;28;20363;-72
2021/01/27 03:18:30;;;;;;;;;;;1.40;99.90;;;;;;5004370;28;19918;-72
2021/01/27 03:21:01;;;;;;;;;;;1.40;99.90;;;;;;4997698;28;19913;-72
2021/01/27 03:23:46;;;;;;;;;;;1.40;99.90;;;;;;5011631;28;19913;-72
2021/01/27 03:26:32;;;;;;;;;;;1.40;99.90;;;;;;5003971;28;19910;-72
2021/01/27 03:29:18;;;;;;;;;;;1.40;99.90;;;;;;4994344;28;19910;-71
2021/01/27 03:31:43;;;;;;;;;;;1.40;99.90;;;;;;4975612;28;19917;-72
2021/01/27 03:34:11;;;;;;;;;;;1.40;99.90;;;;;;4996048;28;20366;-70
2021/01/27 03:36:41;;;;;;;;;;;1.40;99.90;;;;;;4999495;28;19911;-72
2021/01/27 03:39:07;;;;;;;;;;;1.40;99.90;;;;;;5024269;28;19916;-71
2021/01/27 03:41:57;;;;;;;;;;;1.40;99.90;;;;;;5030087;28;19909;-72
2021/01/27 03:44:26;;;;;;;;;;;1.40;99.90;;;;;;5014485;28;19941;-71
2021/01/27 03:46:52;;;;;;;;;;;1.30;99.90;;;;;;5023000;28;19902;-70
2021/01/27 03:49:19;;;;;;;;;;;1.30;99.90;;;;;;5030923;28;19984;-71
2021/01/27 03:51:47;;;;;;;;;;;1.30;99.90;;;;;;5028948;28;20395;-72
2021/01/27 03:54:15;;;;;;;;;;;1.30;99.90;;;;;;4999419;28;19956;-71
2021/01/27 03:56:44;;;;;;;;;;;1.30;99.90;;;;;;5004470;28;19916;-73
2021/01/27 03:59:12;;;;;;;;;;;1.30;99.90;;;;;;4996510;28;20005;-72
2021/01/27 04:01:45;;;;;;;;;;;1.30;99.90;;;;;;4987311;28;19917;-70
2021/01/27 04:04:11;;;;;;;;;;;1.50;99.90;;;;;;5004928;28;20287;-71
2021/01/27 04:06:36;;;;;;;;;;;1.60;99.90;;;;;;4991148;28;19909;-70
2021/01/27 04:09:02;;;;;;;;;;;1.60;99.90;;;;;;5005503;28;19909;-71
2021/01/27 04:11:27;;;;;;;;;;;1.50;99.90;;;;;;5003856;28;19951;-71
2021/01/27 04:13:53;;;;;;;;;;;1.40;99.90;;;;;;4996103;28;19910;-71
2021/01/27 04:16:20;;;;;;;;;;;1.40;99.90;;;;;;4996618;28;20376;-71
2021/01/27 04:18:46;;;;;;;;;;;1.40;99.90;;;;;;5002729;28;19913;-71
2021/01/27 04:21:11;;;;;;;;;;;1.30;99.90;;;;;;5002987;28;19910;-71
2021/01/27 04:23:37;;;;;;;;;;;1.30;99.90;;;;;;5003888;28;20060;-71
2021/01/27 04:26:03;;;;;;;;;;;1.30;99.90;;;;;;5001581;28;19910;-71
2021/01/27 04:28:29;;;;;;;;;;;1.30;99.90;;;;;;5003661;28;19916;-71
2021/01/27 04:30:54;;;;;;;;;;;1.30;99.90;;;;;;5002374;28;20294;-70
2021/01/27 04:33:20;;;;;;;;;;;1.40;99.90;;;;;;5000905;28;20280;-71
2021/01/27 04:35:45;;;;;;;;;;;1.50;99.90;;;;;;4994761;28;20384;-71
2021/01/27 04:38:10;;;;;;;;;;;1.50;99.90;;;;;;4989146;28;19910;-71
2021/01/27 04:40:37;;;;;;;;;;;1.80;99.90;;;;;;4993864;28;19910;-72
2021/01/27 04:43:04;;;;;;;;;;;1.90;90.10;;;;;;5002343;28;20012;-72
2021/01/27 04:45:29;;;;;;;;;;;1.90;83.90;;;;;;5003557;28;19921;-71
2021/01/27 04:47:57;;;;;;;;;;;1.90;85.70;;;;;;5013966;28;19940;-72
2021/01/27 04:50:31;;;;;;;;;;;1.90;81.20;;;;;;5015642;28;19909;-72
2021/01/27 04:53:17;;;;;;;;;;;2.00;79.40;;;;;;4999156;28;19968;-72
2021/01/27 04:55:42;;;;;;;;;;;1.90;81.50;;;;;;4991123;28;19910;-72
2021/01/27 04:58:26;;;;;;;;;;;1.70;98.30;;;;;;5002164;28;19905;-72
2021/01/27 05:01:09;;;;;;;;;;;1.50;99.90;;;;;;5011426;28;20016;-71
2021/01/27 05:03:42;;;;;;;;;;;1.30;99.90;;;;;;4988108;28;20105;-72
2021/01/27 05:06:12;;;;;;;;;;;1.30;99.90;;;;;;5002111;28;19914;-72
2021/01/27 05:08:44;;;;;;;;;;;1.40;99.90;;;;;;4994692;28;19906;-72
2021/01/27 05:11:11;;;;;;;;;;;1.30;99.90;;;;;;5001925;28;19932;-72
2021/01/27 05:13:39;;;;;;;;;;;1.30;99.90;;;;;;4995290;28;19940;-71
2021/01/27 05:16:10;;;;;;;;;;;1.30;99.90;;;;;;4997882;28;19909;-72
2021/01/27 05:18:36;;;;;;;;;;;1.30;99.90;;;;;;4982693;28;19914;-72
2021/01/27 05:21:01;;;;;;;;;;;1.50;99.90;;;;;;4994002;28;20008;-71
2021/01/27 05:23:27;;;;;;;;;;;1.60;91.70;;;;;;4997215;28;19914;-71
2021/01/27 05:26:02;;;;;;;;;;;1.60;75.50;;;;;;5002601;28;19972;-72
2021/01/27 05:28:30;;;;;;;;;;;1.50;99.90;;;;;;5002782;28;20376;-71
2021/01/27 05:30:56;;;;;;;;;;;1.60;94.10;;;;;;5000619;28;19909;-71
2021/01/27 05:33:40;;;;;;;;;;;1.60;95.80;;;;;;4996742;28;19957;-72
2021/01/27 05:36:06;;;;;;;;;;;1.60;91.50;;;;;;5004224;28;20295;-71
2021/01/27 05:38:32;;;;;;;;;;;1.80;68.10;;;;;;4996293;28;19913;-71
2021/01/27 05:41:03;;;;;;;;;;;1.90;32.90;;;;;;5020750;28;19982;-72
2021/01/27 05:43:29;;;;;;;;;;;1.80;63.30;;;;;;5003914;28;19909;-71
2021/01/27 05:46:07;;;;;;;;;;;1.70;71.60;;;;;;5002077;28;20052;-72
2021/01/27 05:48:39;;;;;;;;;;;1.50;96.50;;;;;;5003125;28;20012;-71
2021/01/27 05:51:05;;;;;;;;;;;1.40;99.90;;;;;;5002396;28;20328;-72
2021/01/27 05:53:31;;;;;;;;;;;1.40;99.90;;;;;;4999049;28;19917;-72
2021/01/27 05:56:08;;;;;;;;;;;1.40;99.90;;;;;;4999966;28;19910;-71
2021/01/27 05:58:36;;;;;;;;;;;1.40;97.20;;;;;;5003868;28;19909;-70
2021/01/27 06:01:20;;;;;;;;;;;1.40;99.80;;;;;;5016263;28;19909;-71
2021/01/27 06:04:15;;;;;;;;;;;1.40;96.40;;;;;;5008785;28;19913;-71
2021/01/27 06:06:54;;;;;;;;;;;1.50;89.10;;;;;;5000111;28;19960;-71
2021/01/27 06:09:38;;;;;;;;;;;1.60;66.60;;;;;;4995649;28;19916;-72
2021/01/27 06:12:03;;;;;;;;;;;1.70;34.20;;;;;;4994943;28;19910;-71
2021/01/27 06:14:29;;;;;;;;;;;1.70;26.10;;;;;;4995601;28;19919;-71
2021/01/27 06:16:55;;;;;;;;;;;1.80;1.00;;;;;;5002395;28;19917;-70
2021/01/27 06:19:22;;;;;;;;;;;1.80;1.00;;;;;;5015547;28;19909;-72
2021/01/27 06:22:06;;;;;;;;;;;1.80;10.40;;;;;;5012001;28;19909;-71
2021/01/27 06:24:34;;;;;;;;;;;1.90;1.00;;;;;;5009623;28;20447;-71
2021/01/27 06:27:00;;;;;;;;;;;1.90;1.00;;;;;;5007795;28;19912;-71
2021/01/27 06:29:31;;;;;;;;;;;2.00;1.00;;;;;;5006435;28;19941;-71
2021/01/27 06:32:03;;;;;;;;;;;2.00;1.00;;;;;;5020956;28;19916;-72
2021/01/27 06:34:47;;;;;;;;;;;2.00;1.00;;;;;;5001344;28;20055;-71
2021/01/27 06:37:18;;;;;;;;;;;2.00;1.00;;;;;;5005988;28;19910;-71
2021/01/27 06:39:52;;;;;;;;;;;2.00;1.00;;;;;;5004945;28;19909;-71
2021/01/27 06:42:22;;;;;;;;;;;2.00;1.00;;;;;;4993590;28;19920;-71
2021/01/27 06:44:55;;;;;;;;;;;1.90;1.00;;;;;;5019148;28;19910;-71
2021/01/27 06:47:28;;;;;;;;;;;2.00;24.30;;;;;;5021587;28;20572;-73
2021/01/27 06:49:53;;;;;;;;;;;2.00;1.00;;;;;;5004221;28;20373;-73
2021/01/27 06:52:43;;;;;;;;;;;2.00;1.00;;;;;;4998127;28;19912;-72
2021/01/27 06:55:23;;;;;;;;;;;2.00;1.00;;;;;;5000736;28;19932;-73
2021/01/27 06:57:52;;;;;;;;;;;2.00;1.00;;;;;;5001279;28;19906;-71
2021/01/27 07:00:37;;;;;;;;;;;2.00;1.00;;;;;;5006925;28;20392;-72
2021/01/27 07:03:06;;;;;;;;;;;2.10;1.00;;;;;;4997130;28;19916;-72
2021/01/27 07:05:31;;;;;;;;;;;2.00;1.00;;;;;;5007613;28;19916;-71
2021/01/27 07:08:06;;;;;;;;;;;2.00;1.00;;;;;;5008678;28;20000;-72
2021/01/27 07:10:41;;;;;;;;;;;2.10;1.00;;;;;;5009362;28;19909;-72
2021/01/27 07:13:18;;;;;;;;;;;2.00;1.00;;;;;;5004384;28;19905;-72
2021/01/27 07:15:44;;;;;;;;;;;2.00;1.00;;;;;;5007976;28;19917;-71
2021/01/27 07:18:28;;;;;;;;;;;2.00;1.00;;;;;;4999648;28;20284;-72
2021/01/27 07:21:03;;;;;;;;;;;2.10;1.00;;;;;;4993856;28;19913;-72
2021/01/27 07:23:40;;;;;;;;;;;2.10;1.00;;;;;;4999628;28;19918;-72
2021/01/27 07:26:06;;;;;;;;;;;2.10;1.00;;;;;;5006195;28;19917;-71
2021/01/27 07:28:47;;;;;;;;;;;2.10;1.00;;;;;;5001203;28;19917;-72
2021/01/27 07:31:26;;;;;;;;;;;2.20;1.00;;;;;;5005567;28;19916;-72
2021/01/27 07:33:55;;;;;;;;;;;2.20;1.00;;;;;;5008471;28;19910;-71
2021/01/27 07:36:39;;;;;;;;;;;2.20;1.00;;;;;;5006309;28;19906;-72
2021/01/27 07:39:13;;;;;;;;;;;2.30;1.00;;;;;;5007399;28;20442;-72
2021/01/27 07:42:01;;;;;;;;;;;2.30;1.00;;;;;;4996610;28;19936;-72
2021/01/27 07:44:27;;;;;;;;;;;2.30;1.00;;;;;;4991074;28;20336;-72
2021/01/27 07:47:01;;;;;;;;;;;2.30;1.00;;;;;;5006740;28;19916;-71
2021/01/27 07:49:34;;;;;;;;;;;2.30;1.00;;;;;;5014037;28;19959;-73
2021/01/27 07:52:03;;;;;;;;;;;2.40;1.00;;;;;;5021726;28;19910;-72
2021/01/27 07:54:39;;;;;;;;;;;2.40;1.00;;;;;;4997875;28;19910;-72
2021/01/27 07:57:13;;;;;;;;;;;2.40;1.00;;;;;;4995540;28;19909;-72
2021/01/27 07:59:45;;;;;;;;;;;2.30;1.00;;;;;;4995807;28;19909;-73
2021/01/27 08:02:13;;;;;;;;;;;2.30;1.00;;;;;;5001710;28;19920;-71
2021/01/27 08:04:47;;;;;;;;;;;2.20;15.90;;;;;;4996575;28;20040;-72
2021/01/27 08:07:23;;;;;;;;;;;2.20;28.30;;;;;;5001339;28;20008;-71
2021/01/27 08:09:50;;;;;;;;;;;2.30;33.30;;;;;;4997101;28;19906;-72
2021/01/27 08:12:16;;;;;;;;;;;2.30;48.40;;;;;;4997681;28;19998;-72
2021/01/27 08:15:02;;;;;;;;;;;2.30;61.30;;;;;;4993239;28;19969;-72
2021/01/27 08:17:48;;;;;;;;;;;2.20;92.10;;;;;;4995970;28;19916;-71
2021/01/27 08:20:16;;;;;;;;;;;2.20;92.40;;;;;;5002977;28;19913;-71
2021/01/27 08:22:49;;;;;;;;;;;2.20;98.00;;;;;;5002463;28;19913;-72
2021/01/27 08:25:33;;;;;;;;;;;2.20;99.90;;;;;;5010397;28;19914;-72
2021/01/27 08:28:19;;;;;;;;;;;2.20;99.90;;;;;;5017744;28;19917;-72
2021/01/27 08:31:04;;;;;;;;;;;2.20;99.90;;;;;;4998029;28;19913;-72
2021/01/27 08:33:32;;;;;;;;;;;2.30;99.90;;;;;;5004167;28;19914;-71
2021/01/27 08:35:59;;;;;;;;;;;2.30;99.90;;;;;;4999345;28;20342;-72
2021/01/27 08:38:26;;;;;;;;;;;2.20;99.90;;;;;;4999595;28;19985;-72
2021/01/27 08:40:52;;;;;;;;;;;2.20;99.90;;;;;;5003373;28;20407;-72
2021/01/27 08:43:17;;;;;;;;;;;2.30;99.90;;;;;;5010412;28;19956;-71
2021/01/27 08:45:46;;;;;;;;;;;2.20;99.90;;;;;;5013530;28;19901;-72
2021/01/27 08:48:12;;;;;;;;;;;2.20;99.90;;;;;;5023062;28;19913;-72
2021/01/27 08:50:48;;;;;;;;;;;2.30;99.90;;;;;;5001029;28;19909;-71
2021/01/27 08:53:15;;;;;;;;;;;2.30;99.90;;;;;;5000750;28;20389;-71
2021/01/27 08:55:44;;;;;;;;;;;2.20;99.90;;;;;;4998832;28;19905;-72
2021/01/27 08:58:26;;;;;;;;;;;2.20;99.90;;;;;;4997998;28;19906;-72
2021/01/27 09:00:53;;;;;;;;;;;2.20;99.90;;;;;;4995524;28;19909;-73
2021/01/27 09:03:37;;;;;;;;;;;2.10;99.90;;;;;;5002331;28;19914;-72
2021/01/27 09:06:03;;;;;;;;;;;2.10;99.90;;;;;;5012342;28;19925;-73
2021/01/27 09:08:31;;;;;;;;;;;2.20;99.90;;;;;;4995395;28;20000;-73
2021/01/27 09:10:58;;;;;;;;;;;2.20;99.90;;;;;;4995194;28;19964;-73
2021/01/27 09:13:24;;;;;;;;;;;2.20;99.90;;;;;;5003809;28;19913;-72
2021/01/27 09:15:52;;;;;;;;;;;2.10;99.90;;;;;;4999979;28;19980;-72
2021/01/27 09:18:17;;;;;;;;;;;2.10;99.90;;;;;;4999246;28;19916;-71
2021/01/27 09:20:43;;;;;;;;;;;2.00;99.90;;;;;;5007297;28;20417;-71
2021/01/27 09:23:08;;;;;;;;;;;2.00;99.90;;;;;;4998352;28;20012;-72
2021/01/27 09:25:41;;;;;;;;;;;2.00;99.90;;;;;;5011524;28;19913;-72
2021/01/27 09:28:08;;;;;;;;;;;2.00;99.90;;;;;;4999308;28;19913;-73
2021/01/27 09:30:34;;;;;;;;;;;2.00;99.90;;;;;;5005466;28;19917;-72
2021/01/27 09:33:13;;;;;;;;;;;2.00;99.90;;;;;;5014205;28;19917;-73
2021/01/27 09:35:39;;;;;;;;;;;1.90;99.90;;;;;;4989606;28;19917;-73
2021/01/27 09:38:08;;;;;;;;;;;1.90;99.90;;;;;;4995825;28;20309;-72
2021/01/27 09:40:34;;;;;;;;;;;1.90;99.90;;;;;;5001916;28;19910;-73
2021/01/27 09:43:00;;;;;;;;;;;1.80;99.90;;;;;;5002466;28;19921;-72
2021/01/27 09:45:27;;;;;;;;;;;1.80;99.90;;;;;;5002098;28;19910;-73
2021/01/27 09:47:53;;;;;;;;;;;1.70;99.90;;;;;;4994679;28;19944;-72
2021/01/27 09:50:19;;;;;;;;;;;1.70;99.90;;;;;;5003360;28;19909;-73
2021/01/27 09:52:50;;;;;;;;;;;1.70;99.90;;;;;;5008021;28;19975;-72
2021/01/27 09:55:16;;;;;;;;;;;1.70;99.90;;;;;;4996980;28;19914;-72
2021/01/27 09:57:42;;;;;;;;;;;1.70;99.90;;;;;;4988186;28;19924;-73
2021/01/27 10:00:12;;;;;;;;;;;1.70;99.90;;;;;;4996287;28;19979;-72
2021/01/27 10:02:37;;;;;;;;;;;1.70;99.90;;;;;;4990118;28;20032;-72
2021/01/27 10:05:23;;;;;;;;;;;1.90;99.90;;;;;;5011735;28;20484;-72
2021/01/27 10:07:49;;;;;;;;;;;1.70;99.90;;;;;;5001898;28;19921;-71
2021/01/27 10:10:16;;;;;;;;;;;1.70;99.90;;;;;;5002080;28;19913;-71
2021/01/27 10:12:42;;;;;;;;;;;1.70;99.90;;;;;;5007366;28;19916;-72
2021/01/27 10:15:24;;;;;;;;;;;1.80;99.90;;;;;;4998841;28;19910;-72
2021/01/27 10:17:52;;;;;;;;;;;1.80;99.90;;;;;;4995460;28;19981;-73
2021/01/27 10:20:22;;;;;;;;;;;1.70;99.90;;;;;;4999575;28;19977;-72
2021/01/27 10:22:58;;;;;;;;;;;1.70;99.90;;;;;;5001176;28;19921;-72
2021/01/27 10:25:26;;;;;;;;;;;1.80;99.90;;;;;;5000652;28;19909;-73
2021/01/27 10:28:02;;;;;;;;;;;1.90;99.90;;;;;;5006592;28;19910;-73
2021/01/27 10:30:30;;;;;;;;;;;1.90;99.90;;;;;;4999508;28;19960;-72
2021/01/27 10:32:56;;;;;;;;;;;2.00;99.90;;;;;;5000715;28;19913;-72
2021/01/27 10:35:21;;;;;;;;;;;2.00;99.90;;;;;;4996761;28;20337;-73
2021/01/27 10:37:48;;;;;;;;;;;2.00;99.90;;;;;;4994460;28;19910;-72
2021/01/27 10:40:16;;;;;;;;;;;2.10;99.90;;;;;;5003151;28;19916;-73
2021/01/27 10:42:49;;;;;;;;;;;2.10;99.90;;;;;;5014903;28;19913;-72
2021/01/27 10:45:27;;;;;;;;;;;2.20;99.90;;;;;;5014102;28;19948;-73
2021/01/27 10:48:05;;;;;;;;;;;2.30;99.90;;;;;;5012882;28;19956;-72
2021/01/27 10:50:31;;;;;;;;;;;2.30;99.90;;;;;;5008699;28;19914;-72
2021/01/27 10:52:58;;;;;;;;;;;2.30;99.90;;;;;;5010350;28;19910;-72
2021/01/27 10:55:29;;;;;;;;;;;2.40;99.90;;;;;;5017905;28;19917;-74
2021/01/27 10:58:12;;;;;;;;;;;2.30;99.90;;;;;;5009958;28;20302;-72
2021/01/27 11:00:38;;;;;;;;;;;2.30;99.90;;;;;;4995538;28;19941;-71
2021/01/27 11:03:04;;;;;;;;;;;2.40;99.90;;;;;;5004272;28;19914;-71
2021/01/27 11:05:30;;;;;;;;;;;2.40;99.90;;;;;;4989183;28;19906;-71
2021/01/27 11:07:55;;;;;;;;;;;2.40;99.90;;;;;;4981912;28;19997;-72
2021/01/27 11:10:21;;;;;;;;;;;2.30;99.90;;;;;;4962364;28;19941;-72
2021/01/27 11:12:47;;;;;;;;;;;2.30;99.90;;;;;;4976525;28;19912;-72
2021/01/27 11:15:13;;;;;;;;;;;2.30;99.90;;;;;;4976977;28;20064;-72
2021/01/27 11:17:38;;;;;;;;;;;2.30;99.90;;;;;;4978386;28;19906;-71
2021/01/27 11:20:05;;;;;;;;;;;2.30;99.90;;;;;;4980790;28;19905;-72
2021/01/27 11:22:30;;;;;;;;;;;2.30;99.90;;;;;;4998730;28;19918;-73
2021/01/27 11:24:56;;;;;;;;;;;2.20;99.90;;;;;;5002337;28;20004;-75
2021/01/27 11:27:21;;;;;;;;;;;2.30;99.90;;;;;;4998711;28;20308;-75
2021/01/27 11:29:47;;;;;;;;;;;2.30;99.90;;;;;;5012501;28;19917;-74
2021/01/27 11:32:13;;;;;;;;;;;2.40;99.90;;;;;;4996662;28;19906;-75
2021/01/27 11:34:38;;;;;;;;;;;2.40;99.90;;;;;;5008969;28;20000;-73
2021/01/27 11:37:04;;;;;;;;;;;2.40;99.90;;;;;;4998662;28;19902;-73
2021/01/27 11:39:29;;;;;;;;;;;2.50;99.90;;;;;;5012094;28;19917;-72
2021/01/27 11:41:55;;;;;;;;;;;2.80;99.90;;;;;;5008382;28;19916;-74
2021/01/27 11:44:20;;;;;;;;;;;2.70;99.90;;;;;;4999249;28;19906;-73
2021/01/27 11:46:46;;;;;;;;;;;2.60;99.90;;;;;;5003824;28;19901;-71
2021/01/27 11:49:13;;;;;;;;;;;2.70;99.90;;;;;;5019407;28;19945;-72
2021/01/27 11:51:39;;;;;;;;;;;2.70;99.90;;;;;;5020292;28;19898;-73
2021/01/27 11:54:04;;;;;;;;;;;2.80;99.90;;;;;;5019352;28;19908;-72
2021/01/27 11:56:29;;;;;;;;;;;3.00;99.90;;;;;;5019959;28;19898;-71
2021/01/27 11:58:55;;;;;;;;;;;2.80;99.90;;;;;;5019871;28;19912;-73
2021/01/27 12:01:20;;;;;;;;;;;2.90;99.90;;;;;;5021401;28;19897;-74
2021/01/27 12:03:46;;;;;;;;;;;2.90;99.90;;;;;;5019803;28;19918;-72
2021/01/27 12:06:11;;;;;;;;;;;2.90;99.90;;;;;;5007713;28;19988;-75
2021/01/27 12:08:37;;;;;;;;;;;2.90;99.90;;;;;;4998002;28;19910;-73
2021/01/27 12:11:02;;;;;;;;;;;3.00;99.90;;;;;;5001562;28;19916;-73
2021/01/27 12:13:28;;;;;;;;;;;3.00;99.90;;;;;;4999797;28;20200;-74
2021/01/27 12:15:53;;;;;;;;;;;3.00;98.20;;;;;;5005137;28;20439;-73
2021/01/27 12:18:19;;;;;;;;;;;3.00;98.10;;;;;;5002239;28;19916;-72
2021/01/27 12:20:46;;;;;;;;;;;2.90;99.90;;;;;;5009541;28;19957;-74
2021/01/27 12:23:12;;;;;;;;;;;2.80;99.90;;;;;;5004205;28;19959;-74
2021/01/27 12:25:37;;;;;;;;;;;2.80;99.90;;;;;;4999081;28;19921;-71
2021/01/27 12:28:03;;;;;;;;;;;2.80;99.90;;;;;;4999299;28;20011;-72
2021/01/27 12:30:28;;;;;;;;;;;2.80;99.90;;;;;;4998303;28;19905;-72
2021/01/27 12:32:54;;;;;;;;;;;2.80;99.90;;;;;;4994605;28;19906;-71
2021/01/27 12:35:20;;;;;;;;;;;2.80;99.90;;;;;;4997092;28;20005;-73
2021/01/27 12:37:45;;;;;;;;;;;2.90;99.90;;;;;;4996088;28;20362;-72
2021/01/27 12:40:12;;;;;;;;;;;3.00;99.90;;;;;;4994552;28;19913;-72
2021/01/27 12:42:38;;;;;;;;;;;2.90;99.90;;;;;;4997824;28;19956;-72
2021/01/27 12:45:04;;;;;;;;;;;2.90;99.90;;;;;;5007603;28;19910;-72
2021/01/27 12:47:30;;;;;;;;;;;3.00;99.90;;;;;;5010051;28;20659;-72
2021/01/27 12:49:55;;;;;;;;;;;3.10;99.90;;;;;;5006226;28;19906;-71
2021/01/27 12:52:21;;;;;;;;;;;3.10;99.90;;;;;;5002147;28;19906;-71
2021/01/27 12:54:46;;;;;;;;;;;3.00;99.90;;;;;;5002757;28;19909;-71
2021/01/27 12:57:11;;;;;;;;;;;3.10;99.90;;;;;;5004675;28;19985;-71
2021/01/27 12:59:37;;;;;;;;;;;3.20;99.90;;;;;;5004579;28;20282;-72
2021/01/27 13:02:02;;;;;;;;;;;3.30;99.90;;;;;;4999776;28;19956;-71
2021/01/27 13:04:28;;;;;;;;;;;3.30;99.90;;;;;;4999587;28;19909;-71
2021/01/27 13:06:53;;;;;;;;;;;3.20;99.90;;;;;;5004129;28;19910;-72
2021/01/27 13:09:19;;;;;;;;;;;3.00;99.90;;;;;;4995745;28;20052;-72
2021/01/27 13:11:50;;;;;;;;;;;2.90;99.90;;;;;;4996424;28;20289;-72
2021/01/27 13:14:17;;;;;;;;;;;3.00;99.90;;;;;;4997693;28;19916;-72
2021/01/27 13:16:42;;;;;;;;;;;3.20;99.90;;;;;;5008929;28;19974;-72
2021/01/27 13:19:07;;;;;;;;;;;3.00;99.90;;;;;;4993659;28;19909;-72
2021/01/27 13:21:33;;;;;;;;;;;2.90;99.90;;;;;;5002922;28;20209;-71
2021/01/27 13:23:58;;;;;;;;;;;3.00;99.90;;;;;;4994970;28;19957;-72
2021/01/27 13:26:24;;;;;;;;;;;3.00;99.90;;;;;;4993523;28;19912;-71
2021/01/27 13:28:49;;;;;;;;;;;2.90;99.90;;;;;;5009601;28;19952;-72
2021/01/27 13:31:15;;;;;;;;;;;3.00;99.90;;;;;;4996664;28;19913;-72
2021/01/27 13:33:40;;;;;;;;;;;3.00;99.90;;;;;;4997873;28;20293;-72
2021/01/27 13:36:07;;;;;;;;;;;3.10;99.90;;;;;;5002044;28;20472;-71
2021/01/27 13:38:34;;;;;;;;;;;3.10;99.90;;;;;;5012667;28;19910;-72
2021/01/27 13:41:01;;;;;;;;;;;3.20;99.90;;;;;;5010228;28;19917;-71
2021/01/27 13:43:26;;;;;;;;;;;3.10;99.90;;;;;;5000338;28;20316;-72
2021/01/27 13:45:52;;;;;;;;;;;3.10;99.90;;;;;;4994675;28;19910;-72
2021/01/27 13:48:17;;;;;;;;;;;3.10;99.90;;;;;;4994487;28;19991;-72
2021/01/27 13:50:43;;;;;;;;;;;3.10;99.90;;;;;;4995136;28;19913;-72
2021/01/27 13:53:08;;;;;;;;;;;3.10;99.90;;;;;;4995225;28;19905;-73
2021/01/27 13:55:34;;;;;;;;;;;3.10;99.90;;;;;;4993707;28;20001;-72
2021/01/27 13:57:59;;;;;;;;;;;3.10;99.90;;;;;;4996855;28;19905;-73
2021/01/27 14:00:25;;;;;;;;;;;3.00;99.90;;;;;;5010493;28;19941;-72
2021/01/27 14:02:51;;;;;;;;;;;3.00;99.90;;;;;;5001288;28;19968;-72
2021/01/27 14:05:20;;;;;;;;;;;3.10;99.90;;;;;;5000023;28;19909;-72
2021/01/27 14:07:50;;;;;;;;;;;2.90;99.90;;;;;;4998409;28;19956;-71
2021/01/27 14:10:16;;;;;;;;;;;3.10;99.90;;;;;;4993580;28;20288;-71
2021/01/27 14:12:42;;;;;;;;;;;3.10;99.90;;;;;;4997809;28;19910;-72
2021/01/27 14:15:07;;;;;;;;;;;3.10;99.90;;;;;;5003122;28;19916;-72
2021/01/27 14:17:33;;;;;;;;;;;3.20;99.90;;;;;;4999972;28;19905;-73
2021/01/27 14:20:01;;;;;;;;;;;3.10;99.90;;;;;;5006772;28;19988;-72
2021/01/27 14:22:26;;;;;;;;;;;3.00;99.90;;;;;;4995187;28;20005;-71
2021/01/27 14:24:52;;;;;;;;;;;3.00;99.90;;;;;;5002984;28;19945;-71
2021/01/27 14:27:17;;;;;;;;;;;3.10;99.90;;;;;;5000402;28;19944;-73